N.E. Airport METARS
                                                                                                                                                                                                                                                                                                              KCGF   070915Z AUTO 14013G19KT 10SM CLR 00/M03 A3011 RMK AO2 T10021033                                KCLE   070851Z 16009KT 10SM SCT250 00/M04 A3009 RMK AO2 SLP213 T00001044 56018                                KBKL   070853Z 15016G23KT 10SM CLR 01/M03 A3009 RMK AO2 PK WND 15026/0837 SLP196 T00111033 56020                                KLNN   070915Z AUTO 17009G14KT 10SM CLR 00/M04 A3010 RMK AO1 T00011041                                KYNG   070851Z 16008KT 9SM FEW180 M02/M04 A3014 RMK AO2 SLP221 T10221044 56018 $                                KPOV   070915Z AUTO 13005KT 10SM CLR M02/M04 A3011 RMK AO2 T10231041 PWINO                                                                                                                                                                                                                                                                                                                                          

Untitled Document   HOME PAGE

 

MAIN TOPICS

 

  Aviation   Operating Modes   SDR   Slow Scan TV   My Logbook   Awards   My Station   Weather   My Projects   Radio History   Hamvention

 

ABOUT

 

  N8MDP   Contact Me

CQ CQ CQ

 

If you have a question or a comment. please do not hesitate to ask here.



Untitled Document

Local Airport METARS

 

What is a METAR?

 

METAR is an abbreviation for “Meteorological Aerodrome Report”. It is a weather report written specifically for aviators and follows a standard format. It includes key information specific to each aerodrome and data such as wind speed and direction, visibility, cloud cover, and precipitation.

 

A METAR usually looks something like this.

 

KBOS 081730Z AUTO 18008KT 3SM HZ SHVC BKN020 20/16 A2993

 

Below are METARS for local airports in my region.

 

 

Untitled Document
Untitled Document

AVIATION TOPICS

 

  Experience   Local Airports   Local METARS   ADS-B   Pictures   Cessna 172 Videos   Jet Videos   CheckWX

 

 

Useful Information

 

Local ADS-B Virtual Radar Sweep

radar

 

METARs for my local airports:

 

Cuyahoga County Airport (KCGF)

 

Cleveland Hopkins International (KCLE)

 

Lake County Executive Airport (KLNN)

 

Burke Lakefront Airport (KBKL)

 

Youngstown-Warren Regional Airport (KYNG)

 

Akron-Canton Regional Airport (KCAK)

 

|   Home   |    N8MDP   |    Aviation   |    Projects   |    Weather   |   Logbook    |    Contact   |


© 2023 , Jonathan Tucker N8MDP. All Rights Reserved.
Image by macrovector_official on Freepik